createdAt,value
2019-03-11T00:01:45.435Z,100128.66
2019-03-11T00:06:49.670Z,100134.70
2019-03-11T00:11:53.903Z,100145.56
2019-03-11T00:16:58.139Z,100148.80
2019-03-11T00:22:02.388Z,100152.30
2019-03-11T00:27:06.608Z,100156.02
2019-03-11T00:32:10.833Z,100177.00
2019-03-11T00:37:15.068Z,100186.80
2019-03-11T00:42:19.326Z,100199.16
2019-03-11T00:47:23.604Z,100204.48
2019-03-11T00:52:27.807Z,100206.25
2019-03-11T00:57:32.056Z,100221.95
2019-03-11T01:02:36.320Z,100217.55
2019-03-11T01:07:40.539Z,100221.17
2019-03-11T01:12:44.783Z,100222.49
2019-03-11T01:17:49.011Z,100237.94
2019-03-11T01:22:53.246Z,100233.90
2019-03-11T01:27:57.467Z,100230.09
2019-03-11T01:33:01.734Z,100239.08
2019-03-11T01:38:05.968Z,100237.73
2019-03-11T01:43:10.195Z,100249.77
2019-03-11T01:48:14.436Z,100243.94
2019-03-11T01:53:18.663Z,100237.70
2019-03-11T01:58:22.891Z,100239.02
2019-03-11T02:03:27.111Z,100237.40
2019-03-11T02:08:31.352Z,100234.94
2019-03-11T02:13:35.582Z,100231.39
2019-03-11T02:18:39.860Z,100232.03
2019-03-11T02:23:44.091Z,100242.64
2019-03-11T02:28:49.853Z,100243.64
2019-03-11T02:33:54.056Z,100234.14
2019-03-11T02:38:58.291Z,100233.81
2019-03-11T02:44:02.518Z,100250.61
2019-03-11T02:49:06.786Z,100261.89
2019-03-11T02:54:11.003Z,100259.53
2019-03-11T02:59:15.257Z,100250.14
2019-03-11T03:04:26.736Z,100254.19
2019-03-11T03:09:32.150Z,100242.39
2019-03-11T03:14:36.514Z,100246.59
2019-03-11T03:19:40.802Z,100246.86
2019-03-11T03:24:45.592Z,100238.79
2019-03-11T03:29:49.843Z,100241.13
2019-03-11T03:34:54.052Z,100244.53
2019-03-11T03:39:58.696Z,100243.59
2019-03-11T03:45:32.495Z,100236.99
2019-03-11T03:50:38.381Z,100229.33
2019-03-11T03:55:42.616Z,100226.61
2019-03-11T04:00:46.862Z,100223.44
2019-03-11T04:05:51.083Z,100217.86
2019-03-11T04:10:55.331Z,100210.61
2019-03-11T04:15:59.658Z,100219.25
2019-03-11T04:21:04.081Z,100219.63
2019-03-11T04:26:08.310Z,100208.62
2019-03-11T04:31:12.651Z,100209.86
2019-03-11T04:36:16.880Z,100207.30
2019-03-11T04:41:21.107Z,100197.98
2019-03-11T04:46:25.360Z,100212.90
2019-03-11T04:51:29.666Z,100205.19
2019-03-11T04:56:33.924Z,100215.52
2019-03-11T05:01:38.189Z,100215.95
2019-03-11T05:06:42.419Z,100212.72
2019-03-11T05:11:46.654Z,100215.72
2019-03-11T05:16:50.891Z,100210.73
2019-03-11T05:21:55.122Z,100215.00
2019-03-11T05:26:59.346Z,100206.37
2019-03-11T05:32:03.596Z,100223.93
2019-03-11T05:37:07.964Z,100223.71
2019-03-11T05:42:12.189Z,100220.00
2019-03-11T05:47:16.430Z,100219.68
2019-03-11T05:52:20.655Z,100215.67
2019-03-11T05:57:24.894Z,100216.08
2019-03-11T06:02:29.133Z,100218.66
2019-03-11T06:07:33.359Z,100207.35
2019-03-11T06:12:37.597Z,100223.98
2019-03-11T06:17:42.047Z,100228.89
2019-03-11T06:22:46.226Z,100231.39
2019-03-11T06:27:50.447Z,100234.25
2019-03-11T06:32:54.695Z,100227.50
2019-03-11T06:37:58.951Z,100236.89
2019-03-11T06:43:03.196Z,100226.13
2019-03-11T06:48:07.424Z,100231.97
2019-03-11T06:53:11.643Z,100223.95
2019-03-11T06:58:15.864Z,100230.80
2019-03-11T07:03:20.094Z,100240.23
2019-03-11T07:08:24.431Z,100235.25
2019-03-11T07:13:28.796Z,100236.18
2019-03-11T07:18:33.031Z,100240.73
2019-03-11T07:23:37.566Z,100236.44
2019-03-11T07:28:42.045Z,100241.19
2019-03-11T07:33:46.344Z,100240.81
2019-03-11T07:38:50.579Z,100247.66
2019-03-11T07:43:54.839Z,100243.20
2019-03-11T07:48:59.080Z,100248.45
2019-03-11T07:54:03.316Z,100257.34
2019-03-11T07:59:07.538Z,100245.88
2019-03-11T08:04:11.809Z,100258.94
2019-03-11T08:09:16.513Z,100251.38
2019-03-11T08:14:21.040Z,100259.12
2019-03-11T08:19:25.259Z,100267.34
2019-03-11T08:24:29.479Z,100257.89
2019-03-11T08:29:33.706Z,100251.14
2019-03-11T08:34:38.004Z,100272.58
2019-03-11T08:39:42.255Z,100257.56
2019-03-11T08:44:46.753Z,100268.61
2019-03-11T08:49:51.117Z,100286.49
2019-03-11T08:54:55.376Z,100281.04
2019-03-11T08:59:59.600Z,100274.42
2019-03-11T09:05:04.169Z,100284.11
2019-03-11T09:10:10.780Z,100282.98
2019-03-11T09:15:15.137Z,100282.04
2019-03-11T09:20:19.597Z,100287.28
2019-03-11T09:25:23.815Z,100293.25
2019-03-11T09:30:28.046Z,100292.06
2019-03-11T09:35:32.267Z,100306.23
2019-03-11T09:40:36.486Z,100293.67
2019-03-11T09:45:40.719Z,100288.45
2019-03-11T09:50:44.944Z,100284.86
2019-03-11T09:55:49.183Z,100283.44
2019-03-11T10:00:53.415Z,100285.86
2019-03-11T10:05:57.647Z,100282.20
2019-03-11T10:11:01.906Z,100287.66
2019-03-11T10:16:06.213Z,100290.56
2019-03-11T10:21:10.438Z,100294.48
2019-03-11T10:26:14.821Z,100300.47
2019-03-11T10:31:19.084Z,100305.56
2019-03-11T10:36:23.425Z,100307.98
2019-03-11T10:41:27.723Z,100308.00
2019-03-11T10:46:31.959Z,100298.98
2019-03-11T10:51:36.195Z,100292.62
2019-03-11T10:56:40.433Z,100290.93
2019-03-11T11:01:44.688Z,100295.71
2019-03-11T11:06:49.016Z,100294.63
2019-03-11T11:11:53.267Z,100302.14
2019-03-11T11:16:57.494Z,100307.22
2019-03-11T11:22:01.710Z,100305.72
2019-03-11T11:27:06.145Z,100315.13
2019-03-11T11:32:10.364Z,100315.96
2019-03-11T11:37:14.659Z,100321.04
2019-03-11T11:42:18.912Z,100315.60
2019-03-11T11:47:23.156Z,100336.16
2019-03-11T11:52:27.415Z,100342.45
2019-03-11T11:57:31.667Z,100349.44
2019-03-11T12:02:35.903Z,100349.18
2019-03-11T12:07:40.187Z,100341.28
2019-03-11T12:12:44.410Z,100343.30
2019-03-11T12:17:48.805Z,100337.94
2019-03-11T12:22:53.128Z,100337.71
2019-03-11T12:27:58.309Z,100344.19
2019-03-11T12:33:03.067Z,100348.30
2019-03-11T12:38:07.327Z,100347.71
2019-03-11T12:43:11.577Z,100349.14
2019-03-11T12:48:15.806Z,100346.39
2019-03-11T12:53:20.158Z,100341.22
2019-03-11T12:58:24.378Z,100338.61
2019-03-11T13:03:28.616Z,100336.06
2019-03-11T13:08:32.857Z,100342.13
2019-03-11T13:13:37.103Z,100347.18
2019-03-11T13:18:46.342Z,100357.17
2019-03-11T13:23:50.572Z,100361.14
2019-03-11T13:28:54.811Z,100361.47
2019-03-11T13:33:59.117Z,100354.66
2019-03-11T13:39:04.479Z,100366.09
2019-03-11T13:44:08.711Z,100365.39
2019-03-11T13:49:12.947Z,100372.91
2019-03-11T13:54:17.182Z,100378.63
2019-03-11T13:59:21.415Z,100383.00
2019-03-11T14:04:25.698Z,100394.61
2019-03-11T14:09:30.007Z,100398.14
2019-03-11T14:14:34.666Z,100404.70
2019-03-11T14:19:39.649Z,100409.38
2019-03-11T14:24:43.874Z,100405.36
2019-03-11T14:29:48.147Z,100423.72
2019-03-11T14:34:52.408Z,100412.70
2019-03-11T14:39:56.670Z,100415.10
2019-03-11T14:45:00.915Z,100419.73
2019-03-11T14:50:05.409Z,100414.23
2019-03-11T14:55:10.075Z,100427.19
2019-03-11T15:00:18.336Z,100427.30
2019-03-11T15:05:22.150Z,100420.78
2019-03-11T15:10:26.365Z,100433.31
2019-03-11T15:15:30.610Z,100436.73
2019-03-11T15:20:35.819Z,100436.58
2019-03-11T15:25:40.054Z,100447.69
2019-03-11T15:30:44.319Z,100449.05
2019-03-11T15:35:48.557Z,100468.33
2019-03-11T15:40:52.802Z,100465.46
2019-03-11T15:45:57.075Z,100480.55
2019-03-11T15:51:01.359Z,100482.83
2019-03-11T15:56:05.604Z,100481.77
2019-03-11T16:01:11.049Z,100496.66
2019-03-11T16:06:15.326Z,100502.03
2019-03-11T16:11:19.577Z,100513.18
2019-03-11T16:16:26.077Z,100507.81
2019-03-11T16:21:30.312Z,100525.03
2019-03-11T16:26:34.681Z,100526.98
2019-03-11T16:31:38.932Z,100544.61
2019-03-11T16:36:43.157Z,100557.23
2019-03-11T16:41:47.393Z,100567.77
2019-03-11T16:46:51.628Z,100575.91
2019-03-11T16:51:55.855Z,100583.97
2019-03-11T16:57:00.093Z,100578.73
2019-03-11T17:02:04.483Z,100587.97
2019-03-11T17:07:08.747Z,100597.01
2019-03-11T17:12:13.068Z,100605.08
2019-03-11T17:17:17.305Z,100607.73
2019-03-11T17:22:21.728Z,100612.92
2019-03-11T17:27:25.966Z,100619.28
2019-03-11T17:32:30.219Z,100632.64
2019-03-11T17:37:34.443Z,100645.19
2019-03-11T17:42:38.727Z,100644.95
2019-03-11T17:47:42.975Z,100670.73
2019-03-11T17:52:47.510Z,100694.22
2019-03-11T17:57:51.953Z,100702.63
2019-03-11T18:02:56.593Z,100695.25
2019-03-11T18:08:00.834Z,100700.66
2019-03-11T18:13:05.113Z,100709.35
2019-03-11T18:18:09.380Z,100721.14
2019-03-11T18:23:13.899Z,100724.06
2019-03-11T18:28:18.204Z,100762.15
2019-03-11T18:33:22.645Z,100769.09
2019-03-11T18:38:27.281Z,100795.36
2019-03-11T18:43:42.310Z,100801.05
2019-03-11T18:48:38.054Z,100808.48
2019-03-11T18:53:42.301Z,100816.66
2019-03-11T18:58:46.655Z,100822.33
2019-03-11T19:03:51.049Z,100834.85
2019-03-11T19:08:55.261Z,100843.43
2019-03-11T19:13:59.513Z,100827.61
2019-03-11T19:19:03.832Z,100834.73
2019-03-11T19:24:08.231Z,100834.39
2019-03-11T19:29:12.564Z,100837.55
2019-03-11T19:34:16.957Z,100844.50
2019-03-11T19:39:21.322Z,100851.58
2019-03-11T19:44:25.685Z,100852.56
2019-03-11T19:49:30.327Z,100864.13
2019-03-11T19:54:34.878Z,100879.71
2019-03-11T19:59:39.269Z,100883.70
2019-03-11T20:04:43.657Z,100889.15
2019-03-11T20:09:48.327Z,100901.03
2019-03-11T20:14:52.910Z,100900.88
2019-03-11T20:19:57.215Z,100904.69
2019-03-11T20:25:02.082Z,100910.60
2019-03-11T20:30:08.712Z,100926.45
2019-03-11T20:35:13.140Z,100925.30
2019-03-11T20:40:17.651Z,100936.03
2019-03-11T20:45:22.158Z,100959.80
2019-03-11T20:50:26.425Z,100959.61
2019-03-11T20:55:30.728Z,100972.48
2019-03-11T21:00:35.035Z,100980.59
2019-03-11T21:05:39.528Z,100991.99
2019-03-11T21:10:43.843Z,100979.58
2019-03-11T21:15:48.143Z,101026.19
2019-03-11T21:21:04.103Z,101038.92
2019-03-11T21:25:58.412Z,101046.64
2019-03-11T21:31:02.618Z,101048.77
2019-03-11T21:36:06.905Z,101056.53
2019-03-11T21:41:11.194Z,101064.59
2019-03-11T21:46:15.798Z,101068.03
2019-03-11T21:51:20.018Z,101070.83
2019-03-11T21:56:24.306Z,101072.66
2019-03-11T22:01:28.535Z,101080.77
2019-03-11T22:06:32.798Z,101084.70
2019-03-11T22:11:37.037Z,101102.08
2019-03-11T22:16:41.290Z,101113.09
2019-03-11T22:21:45.580Z,101120.72
2019-03-11T22:26:49.841Z,101135.00
2019-03-11T22:31:54.091Z,101141.45
2019-03-11T22:36:58.331Z,101145.97
2019-03-11T22:42:02.554Z,101153.41
2019-03-11T22:47:06.792Z,101156.05
2019-03-11T22:52:11.008Z,101164.28
2019-03-11T22:57:15.265Z,101182.96
2019-03-11T23:02:19.503Z,101201.05
2019-03-11T23:07:23.765Z,101209.67
2019-03-11T23:12:28.227Z,101219.48
2019-03-11T23:17:32.489Z,101224.97
2019-03-11T23:22:37.105Z,101225.11
2019-03-11T23:27:41.543Z,101225.66
2019-03-11T23:32:45.770Z,101253.65
2019-03-11T23:37:50.072Z,101260.70
2019-03-11T23:42:54.330Z,101268.67
2019-03-11T23:47:58.811Z,101279.53
2019-03-11T23:53:03.056Z,101271.56
2019-03-11T23:58:07.320Z,101268.16
